Other Surface Observations
Issued by NWS Missoula, MT

Home | Current Version | Previous Version | Text Only | Print | Product List | Glossary On
Versions: 1 2 3 4 5 6 7 8 9 10 11 12 13 14 15 16 17 18 19 20 21 22 23 24 25 26 27 28 29 30 31 32 33 34 35 36 37 38 39 40 41 42 43 44 45 46 47 48 49 50
000
SXUS55 KMSO 302333
OSOMSO
MONTANA AWOS SUMMARY
NATIONAL WEATHER SERVICE MISSOULA MT
432 PM MST MON MAR 30 2015

Montana AWOS Reports

LAUREL      |K6S8 302315Z AUTO 27010G16KT 40SM 21/M03 A2998 RMK AO1 T02111032
TWIN BRIDGES|K7S1 302315Z AUTO 20008KT 40SM 21/M12 A3001 RMK AO1 T02111116
ROUNDUP     |KRPX 302315Z AUTO 30009KT 40SM 22/M04 A2988 RMK AO1 T02171038
MALTA       |KM75 302315Z AUTO 26011G16KT 40SM 20/01 A2990 RMK AO1 T02000006




USA.gov is the U.S. government's official web portal to all federal, state and local government web resources and services.